Time;durP1;ratioP1;P1;durP2;ratioP2;P2;SDS_P1;SDS_P2;PMS_P1;PMS_P2;Temp;Humidity;BMP_temperature;BMP_pressure;BME280_temperature;BME280_humidity;BME280_pressure;Samples;Min_cycle;Max_cycle;Signal;HPM_P1;HPM_P2
2024/02/01 00:00:21;;;;;;;9.57;3.30;;;10.90;99.90;;;;;;6263428;28;20045;-92
2024/02/01 00:03:47;;;;;;;9.48;3.47;;;10.90;99.90;;;;;;6274224;28;20105;-93
2024/02/01 00:06:52;;;;;;;10.25;3.75;;;10.90;99.90;;;;;;6265255;28;20045;-93
2024/02/01 00:09:55;;;;;;;8.65;3.15;;;10.90;99.90;;;;;;6277010;28;20071;-90
2024/02/01 00:12:56;;;;;;;12.18;3.50;;;10.90;99.90;;;;;;6272811;28;20049;-90
2024/02/01 00:15:58;;;;;;;8.55;2.67;;;10.90;99.90;;;;;;6252175;28;20057;-91
2024/02/01 00:19:00;;;;;;;11.35;3.55;;;10.90;99.90;;;;;;6272648;28;20047;-91
2024/02/01 00:22:02;;;;;;;11.38;3.42;;;10.90;99.90;;;;;;6280823;28;20139;-89
2024/02/01 00:25:05;;;;;;;9.02;3.05;;;10.90;99.90;;;;;;6281426;28;20061;-92
2024/02/01 00:28:07;;;;;;;10.10;3.20;;;10.90;99.90;;;;;;6276102;28;20053;-92
2024/02/01 00:31:08;;;;;;;7.00;2.75;;;10.90;99.90;;;;;;6267021;28;20053;-91
2024/02/01 00:34:10;;;;;;;6.72;2.65;;;10.90;99.90;;;;;;6284040;28;20045;-94
2024/02/01 00:37:12;;;;;;;8.15;2.70;;;10.90;99.90;;;;;;6278928;28;20029;-92
2024/02/01 00:40:14;;;;;;;9.10;2.80;;;10.80;99.90;;;;;;6271573;28;20063;-91
2024/02/01 00:43:16;;;;;;;7.82;2.75;;;10.80;99.90;;;;;;6277189;28;20137;-83
2024/02/01 00:46:18;;;;;;;6.63;2.35;;;10.70;99.90;;;;;;6281068;28;20053;-92
2024/02/01 00:49:20;;;;;;;8.80;2.72;;;10.70;99.90;;;;;;6276679;28;20049;-92
2024/02/01 00:52:22;;;;;;;9.32;2.50;;;10.70;99.90;;;;;;6271116;28;20054;-93
2024/02/01 00:55:23;;;;;;;6.80;2.28;;;10.60;99.90;;;;;;6284068;28;20441;-92
2024/02/01 00:58:25;;;;;;;6.53;2.20;;;10.80;99.90;;;;;;6275408;28;20065;-90
2024/02/01 01:01:27;;;;;;;7.18;2.13;;;10.70;99.90;;;;;;6277832;28;20053;-92
2024/02/01 01:04:29;;;;;;;8.70;2.22;;;10.80;99.90;;;;;;6278537;28;20045;-93
2024/02/01 01:07:34;;;;;;;7.53;2.38;;;10.80;99.90;;;;;;6275891;28;20073;-92
2024/02/01 01:10:35;;;;;;;6.45;2.10;;;10.90;99.90;;;;;;6285427;28;20045;-91
2024/02/01 01:13:37;;;;;;;7.57;2.20;;;10.90;99.90;;;;;;6285906;28;20097;-92
2024/02/01 01:16:39;;;;;;;6.63;2.08;;;10.90;99.90;;;;;;6278885;28;20056;-93
2024/02/01 01:19:41;;;;;;;7.72;2.17;;;10.90;99.90;;;;;;6281185;28;20112;-91
2024/02/01 01:22:43;;;;;;;6.88;2.10;;;10.90;99.90;;;;;;6285472;28;20120;-92
2024/02/01 01:25:44;;;;;;;5.38;1.77;;;10.90;99.90;;;;;;6284769;28;20037;-93
2024/02/01 01:28:46;;;;;;;5.40;2.00;;;10.90;99.90;;;;;;6288865;28;20049;-93
2024/02/01 01:31:48;;;;;;;6.13;2.05;;;10.90;99.90;;;;;;6284713;28;20032;-94
2024/02/01 01:34:49;;;;;;;4.70;1.77;;;10.90;99.90;;;;;;6286420;28;20053;-91
2024/02/01 01:37:51;;;;;;;8.32;2.13;;;10.80;99.90;;;;;;6277358;28;20076;-94
2024/02/01 01:40:53;;;;;;;5.80;1.90;;;10.80;99.90;;;;;;6299190;28;20080;-93
2024/02/01 01:43:55;;;;;;;7.35;1.98;;;10.80;99.90;;;;;;6291114;28;20045;-92
2024/02/01 01:46:57;;;;;;;6.88;1.90;;;10.80;99.90;;;;;;6293080;28;20033;-93
2024/02/01 01:49:59;;;;;;;5.72;2.00;;;10.90;99.90;;;;;;6286996;28;20033;-90
2024/02/01 01:53:01;;;;;;;6.05;1.90;;;10.90;99.90;;;;;;6289451;28;20033;-93
2024/02/01 01:56:03;;;;;;;5.43;1.55;;;10.90;99.90;;;;;;6296437;28;20040;-93
2024/02/01 01:59:12;;;;;;;5.05;1.80;;;10.90;99.90;;;;;;6294495;28;20045;-92
2024/02/01 02:02:14;;;;;;;5.63;1.67;;;10.90;99.90;;;;;;6287326;28;20045;-92
2024/02/01 02:05:16;;;;;;;4.28;1.30;;;10.90;99.90;;;;;;6288246;28;20063;-91
2024/02/01 02:08:19;;;;;;;4.72;1.30;;;10.80;99.90;;;;;;6295990;28;20056;-92
2024/02/01 02:11:23;;;;;;;3.17;0.90;;;10.90;99.90;;;;;;6285533;28;20041;-93
2024/02/01 02:14:25;;;;;;;3.13;0.90;;;10.80;99.90;;;;;;6294305;28;20037;-91
2024/02/01 02:17:27;;;;;;;3.38;1.00;;;10.80;99.90;;;;;;6290517;28;20073;-92
2024/02/01 02:20:28;;;;;;;2.97;0.90;;;10.70;99.90;;;;;;6279711;28;20052;-93
2024/02/01 02:23:30;;;;;;;4.10;1.13;;;10.70;99.90;;;;;;6284960;28;20057;-92
2024/02/01 02:26:32;;;;;;;3.45;1.40;;;10.70;99.90;;;;;;6277354;28;20099;-93
2024/02/01 02:29:35;;;;;;;2.90;1.50;;;10.60;99.90;;;;;;6285544;28;20061;-92
2024/02/01 02:32:37;;;;;;;5.50;2.03;;;10.50;99.90;;;;;;6285833;28;20507;-92
2024/02/01 02:35:39;;;;;;;4.25;2.17;;;10.50;99.90;;;;;;6292322;28;20052;-93
2024/02/01 02:38:41;;;;;;;7.47;2.78;;;10.40;99.90;;;;;;6288928;28;20053;-92
2024/02/01 02:41:42;;;;;;;7.43;2.70;;;10.30;99.90;;;;;;6290223;28;20060;-92
2024/02/01 02:44:44;;;;;;;8.88;2.17;;;10.20;99.90;;;;;;6278311;28;20115;-92
2024/02/01 02:47:46;;;;;;;11.27;2.65;;;10.00;99.90;;;;;;6281965;28;20065;-93
2024/02/01 02:50:49;;;;;;;8.70;2.30;;;9.90;99.90;;;;;;6293136;28;20076;-91
2024/02/01 02:53:51;;;;;;;11.10;2.25;;;9.80;99.90;;;;;;6287127;28;20076;-91
2024/02/01 02:56:53;;;;;;;10.70;2.28;;;9.70;99.90;;;;;;6281435;28;20113;-91
2024/02/01 02:59:54;;;;;;;9.38;2.03;;;9.60;99.90;;;;;;6284349;28;20049;-91
2024/02/01 03:02:56;;;;;;;9.25;2.20;;;9.50;99.90;;;;;;6289540;28;20113;-91
2024/02/01 03:05:58;;;;;;;11.90;2.10;;;9.50;99.90;;;;;;6281395;28;20095;-92
2024/02/01 03:09:00;;;;;;;10.95;2.30;;;9.30;99.90;;;;;;6290457;28;20436;-91
2024/02/01 03:12:06;;;;;;;11.48;2.17;;;9.30;99.90;;;;;;6279205;28;20121;-90
2024/02/01 03:15:09;;;;;;;11.25;2.40;;;9.10;99.90;;;;;;6288462;28;20055;-90
2024/02/01 03:18:12;;;;;;;10.02;2.20;;;9.00;99.90;;;;;;6287120;28;20057;-89
2024/02/01 03:21:14;;;;;;;11.50;2.08;;;8.90;99.90;;;;;;6287111;28;20064;-91
2024/02/01 03:24:16;;;;;;;10.52;2.20;;;8.90;99.90;;;;;;6282759;28;20050;-90
2024/02/01 03:27:18;;;;;;;13.55;2.40;;;8.90;99.90;;;;;;6286652;28;20064;-90
2024/02/01 03:30:21;;;;;;;14.05;2.42;;;8.80;99.90;;;;;;6287367;28;20021;-91
2024/02/01 03:33:23;;;;;;;17.50;2.85;;;8.80;98.10;;;;;;6281911;28;20045;-90
2024/02/01 03:36:25;;;;;;;20.10;2.78;;;8.70;90.50;;;;;;6289218;28;20053;-90
2024/02/01 03:39:29;;;;;;;16.13;2.85;;;8.60;85.00;;;;;;6270309;28;20056;-89
2024/02/01 03:42:31;;;;;;;17.27;2.63;;;8.50;86.00;;;;;;6272775;28;20052;-89
2024/02/01 03:45:32;;;;;;;15.32;2.67;;;8.40;77.20;;;;;;6268587;28;20059;-88
2024/02/01 03:48:34;;;;;;;16.08;2.78;;;8.20;68.80;;;;;;6268480;28;20075;-87
2024/02/01 03:51:36;;;;;;;20.23;2.85;;;8.20;77.60;;;;;;6267368;28;20056;-90
2024/02/01 03:54:37;;;;;;;21.05;3.05;;;8.10;68.70;;;;;;6289470;28;20049;-89
2024/02/01 03:57:39;;;;;;;14.90;3.10;;;7.90;67.90;;;;;;6272367;28;20060;-90
2024/02/01 04:00:44;;;;;;;14.40;2.45;;;7.90;73.50;;;;;;6277378;28;20053;-90
2024/02/01 04:03:46;;;;;;;18.60;3.28;;;7.90;77.50;;;;;;6288219;28;20144;-90
2024/02/01 04:06:51;;;;;;;17.92;2.80;;;7.80;78.30;;;;;;6273558;28;20488;-89
2024/02/01 04:09:54;;;;;;;20.52;2.60;;;7.80;77.30;;;;;;6285409;28;20109;-92
2024/02/01 04:12:57;;;;;;;18.80;2.95;;;7.90;77.10;;;;;;6260856;28;20513;-88
2024/02/01 04:15:58;;;;;;;14.73;3.00;;;7.80;82.00;;;;;;6274659;28;20045;-88
2024/02/01 04:19:00;;;;;;;18.00;3.47;;;7.70;80.00;;;;;;6277844;28;20057;-90
2024/02/01 04:22:02;;;;;;;21.25;2.80;;;7.70;81.60;;;;;;6277425;28;20049;-89
2024/02/01 04:25:08;;;;;;;25.05;3.22;;;7.50;84.20;;;;;;6278911;28;20040;-90
2024/02/01 04:28:12;;;;;;;13.60;2.60;;;7.50;86.50;;;;;;6279363;28;20079;-91
2024/02/01 04:31:14;;;;;;;19.50;3.08;;;7.50;89.70;;;;;;6296072;28;20053;-90
2024/02/01 04:34:15;;;;;;;19.73;2.95;;;7.50;91.10;;;;;;6298614;28;20045;-90
2024/02/01 04:37:19;;;;;;;18.98;3.15;;;7.50;90.30;;;;;;6294825;28;20067;-89
2024/02/01 04:40:21;;;;;;;16.92;2.35;;;7.50;89.30;;;;;;6292715;28;20235;-90
2024/02/01 04:43:24;;;;;;;21.15;3.10;;;7.50;91.40;;;;;;6291830;28;20052;-86
2024/02/01 04:46:25;;;;;;;17.23;2.70;;;7.60;93.30;;;;;;6263422;22;20076;-87
2024/02/01 04:49:28;;;;;;;16.67;2.83;;;7.60;93.30;;;;;;6249184;28;20215;-86
2024/02/01 04:52:30;;;;;;;15.32;3.15;;;7.60;91.80;;;;;;6247077;28;20076;-87
2024/02/01 04:55:31;;;;;;;16.42;2.65;;;7.60;92.20;;;;;;6239558;28;20050;-87
2024/02/01 04:58:36;;;;;;;19.20;3.45;;;7.60;92.10;;;;;;6224358;28;20410;-87
2024/02/01 05:01:38;;;;;;;19.42;2.97;;;7.70;91.70;;;;;;6226071;28;20054;-87
2024/02/01 05:04:39;;;;;;;16.52;2.60;;;7.60;90.90;;;;;;6225738;28;20072;-86
2024/02/01 05:07:41;;;;;;;16.55;2.95;;;7.60;85.60;;;;;;6235712;28;20056;-85
2024/02/01 05:10:46;;;;;;;17.25;2.88;;;7.60;88.50;;;;;;6235795;28;20042;-85
2024/02/01 05:13:47;;;;;;;19.05;3.33;;;7.50;88.90;;;;;;6236865;28;20057;-85
2024/02/01 05:16:50;;;;;;;14.38;2.95;;;7.30;84.10;;;;;;6231308;28;20061;-83
2024/02/01 05:19:51;;;;;;;13.88;2.67;;;7.10;90.60;;;;;;6234658;28;20046;-84
2024/02/01 05:22:53;;;;;;;20.35;3.80;;;7.00;90.10;;;;;;6235047;28;20458;-84
2024/02/01 05:25:55;;;;;;;19.95;3.80;;;6.80;90.00;;;;;;6244816;28;20183;-84
2024/02/01 05:28:57;;;;;;;16.30;3.00;;;6.70;89.60;;;;;;6225334;28;20054;-85
2024/02/01 05:31:58;;;;;;;26.27;3.63;;;6.60;88.20;;;;;;6227403;28;20413;-85
2024/02/01 05:35:00;;;;;;;22.25;3.42;;;6.50;91.00;;;;;;6227237;28;20061;-84
2024/02/01 05:38:05;;;;;;;21.20;3.13;;;6.40;86.70;;;;;;6242461;28;20060;-85
2024/02/01 05:41:11;;;;;;;19.33;2.95;;;6.40;90.60;;;;;;6240284;28;20554;-83
2024/02/01 05:44:13;;;;;;;18.65;3.47;;;6.30;91.80;;;;;;6225788;28;20057;-84
2024/02/01 05:47:16;;;;;;;16.40;3.00;;;6.20;91.80;;;;;;6233960;28;20056;-83
2024/02/01 05:50:17;;;;;;;15.55;2.95;;;6.10;91.90;;;;;;6230084;28;20052;-84
2024/02/01 05:53:19;;;;;;;20.35;2.95;;;6.00;93.40;;;;;;6226128;28;20446;-83
2024/02/01 05:56:23;;;;;;;19.35;3.00;;;6.00;92.90;;;;;;6230887;28;20045;-84
2024/02/01 05:59:24;;;;;;;21.75;3.28;;;5.90;93.50;;;;;;6234935;28;20050;-84
2024/02/01 06:06:04;;;;;;;19.85;2.58;;;5.60;95.80;;;;;;6243664;28;20029;-86
2024/02/01 06:09:12;;;;;;;20.13;3.10;;;5.40;96.00;;;;;;6226782;28;20501;-85
2024/02/01 06:12:14;;;;;;;24.02;3.25;;;5.30;98.30;;;;;;6240474;28;20045;-83
2024/02/01 06:15:16;;;;;;;16.17;2.75;;;5.10;99.00;;;;;;6232147;28;20127;-84
2024/02/01 06:18:18;;;;;;;20.08;3.08;;;5.10;99.90;;;;;;6245283;28;20052;-82
2024/02/01 06:21:20;;;;;;;25.35;3.45;;;5.10;99.90;;;;;;6225299;28;20042;-83
2024/02/01 06:24:21;;;;;;;19.83;2.97;;;5.00;99.90;;;;;;6222655;28;20080;-82
2024/02/01 06:27:23;;;;;;;15.30;2.85;;;5.00;99.90;;;;;;6244343;28;20045;-83
2024/02/01 06:30:25;;;;;;;21.15;3.05;;;5.10;99.60;;;;;;6238360;28;20054;-84
2024/02/01 06:33:29;;;;;;;20.65;3.70;;;5.00;99.60;;;;;;6220530;28;20049;-83
2024/02/01 06:36:38;;;;;;;14.82;2.85;;;5.00;99.90;;;;;;6243807;28;20057;-83
2024/02/01 06:39:58;;;;;;;30.13;3.42;;;5.00;99.90;;;;;;6230120;28;20084;-83
2024/02/01 06:43:11;;;;;;;17.52;2.90;;;5.00;99.90;;;;;;6219664;28;20049;-83
2024/02/01 06:46:38;;;;;;;17.13;3.13;;;5.00;99.90;;;;;;6217665;28;20060;-82
2024/02/01 06:49:49;;;;;;;25.40;3.75;;;4.80;99.90;;;;;;6234122;28;20128;-83
2024/02/01 06:52:56;;;;;;;25.80;3.47;;;4.90;99.90;;;;;;6228083;28;20046;-82
2024/02/01 06:56:00;;;;;;;19.73;2.67;;;4.90;99.90;;;;;;6221312;28;20046;-82
2024/02/01 06:59:29;;;;;;;18.85;2.80;;;4.90;99.90;;;;;;6222620;28;20053;-82
2024/02/01 07:02:35;;;;;;;24.60;3.40;;;5.00;99.90;;;;;;6231133;28;20053;-84
2024/02/01 07:08:52;;;;;;;20.98;3.22;;;5.10;99.20;;;;;;6238138;28;20437;-84
2024/02/01 07:12:10;;;;;;;26.05;3.28;;;5.10;99.30;;;;;;6229517;28;20045;-83
2024/02/01 07:18:30;;;;;;;17.70;2.85;;;4.70;99.90;;;;;;6220087;28;20054;-83
2024/02/01 07:21:45;;;;;;;18.42;3.13;;;4.80;99.90;;;;;;6229922;28;20102;-84
2024/02/01 07:24:59;;;;;;;22.33;3.28;;;4.70;99.90;;;;;;6235155;28;20053;-82
2024/02/01 07:58:08;;;;;;;19.88;3.35;;;4.20;99.90;;;;;;6221423;28;20060;-84
2024/02/01 08:01:17;;;;;;;22.67;4.22;;;4.10;99.90;;;;;;6225764;28;20098;-84
2024/02/01 08:07:43;;;;;;;;;;;4.10;99.90;;;;;;6224469;28;20045;-82
2024/02/01 08:07:44;;;;;;;15.82;2.67;;;4.10;99.90;;;;;;6241785;28;19971;-82
2024/02/01 08:10:46;;;;;;;21.25;4.30;;;4.20;99.90;;;;;;6237468;28;20037;-82
2024/02/01 08:13:50;;;;;;;24.77;3.60;;;4.20;99.90;;;;;;6227258;28;20080;-82
2024/02/01 08:16:52;;;;;;;18.75;3.60;;;4.20;99.90;;;;;;6227288;28;20060;-82
2024/02/01 08:19:54;;;;;;;26.23;3.78;;;4.20;99.90;;;;;;6238659;28;20442;-83
2024/02/01 08:22:56;;;;;;;28.60;4.05;;;4.30;99.90;;;;;;6243635;28;20061;-82
2024/02/01 08:26:02;;;;;;;23.17;3.42;;;4.40;99.90;;;;;;6234618;28;20049;-83
2024/02/01 08:29:06;;;;;;;17.60;3.65;;;4.40;99.90;;;;;;6206352;28;20057;-83
2024/02/01 08:32:08;;;;;;;27.85;3.65;;;4.50;99.90;;;;;;6218681;28;20048;-83
2024/02/01 08:35:10;;;;;;;27.52;3.92;;;4.60;99.90;;;;;;6226472;28;20112;-83
2024/02/01 08:38:12;;;;;;;25.60;5.07;;;4.70;99.90;;;;;;6222394;28;20587;-81
2024/02/01 08:41:13;;;;;;;29.23;4.50;;;4.80;99.90;;;;;;6240862;28;20086;-82
2024/02/01 08:44:16;;;;;;;23.35;4.30;;;5.00;99.90;;;;;;6224622;28;20049;-80
2024/02/01 08:47:23;;;;;;;22.00;3.67;;;5.10;99.90;;;;;;6220857;28;20157;-81
2024/02/01 08:50:25;;;;;;;28.13;4.32;;;5.30;99.90;;;;;;6228229;28;20057;-80
2024/02/01 08:53:27;;;;;;;20.75;3.80;;;5.50;99.90;;;;;;6229716;28;20405;-80
2024/02/01 08:56:36;;;;;;;21.00;3.85;;;5.50;99.90;;;;;;6224276;28;20057;-82
2024/02/01 08:59:38;;;;;;;25.90;3.90;;;5.50;99.90;;;;;;6219543;28;20061;-82
2024/02/01 09:02:40;;;;;;;19.77;3.50;;;5.60;99.90;;;;;;6228475;28;20057;-79
2024/02/01 09:05:42;;;;;;;20.15;3.55;;;5.70;99.90;;;;;;6227003;28;20053;-82
2024/02/01 09:08:44;;;;;;;21.25;4.05;;;5.80;99.90;;;;;;6236288;28;20053;-83
2024/02/01 09:11:46;;;;;;;20.52;3.80;;;6.00;98.00;;;;;;6231225;28;20046;-81
2024/02/01 09:14:48;;;;;;;15.68;3.95;;;6.10;97.30;;;;;;6214842;28;20080;-81
2024/02/01 09:17:50;;;;;;;17.08;3.30;;;6.20;96.50;;;;;;6219444;28;20612;-81
2024/02/01 09:20:52;;;;;;;19.75;4.22;;;6.40;94.80;;;;;;6219558;28;20056;-81
2024/02/01 09:23:54;;;;;;;25.20;3.75;;;6.60;92.60;;;;;;6219900;28;20049;-81
2024/02/01 09:26:57;;;;;;;22.38;4.47;;;6.70;91.70;;;;;;6219322;28;20061;-81
2024/02/01 09:30:00;;;;;;;23.33;3.80;;;7.30;92.50;;;;;;6215111;28;20065;-82
2024/02/01 09:33:02;;;;;;;18.13;2.63;;;7.90;71.70;;;;;;6219090;28;20421;-82
2024/02/01 09:36:04;;;;;;;15.57;2.17;;;8.50;87.00;;;;;;6219110;28;20050;-82
2024/02/01 09:39:05;;;;;;;12.85;2.17;;;9.10;69.00;;;;;;6218972;28;20083;-82
2024/02/01 09:42:11;;;;;;;12.98;2.90;;;9.30;16.30;;;;;;6222503;28;20053;-84
2024/02/01 09:45:13;;;;;;;14.07;2.10;;;9.50;8.30;;;;;;6227413;28;20103;-84
2024/02/01 09:48:18;;;;;;;14.50;2.35;;;10.20;15.00;;;;;;6236741;28;20057;-86
2024/02/01 09:51:23;;;;;;;10.23;2.67;;;10.70;1.00;;;;;;6235509;28;20045;-85
2024/02/01 09:54:25;;;;;;;15.13;2.13;;;10.80;1.00;;;;;;6234077;28;20355;-85
2024/02/01 09:57:27;;;;;;;19.67;3.60;;;11.00;1.00;;;;;;6239103;28;20049;-84
2024/02/01 10:00:33;;;;;;;15.15;2.78;;;11.30;1.00;;;;;;6224130;28;20046;-89
2024/02/01 10:03:36;;;;;;;16.60;2.38;;;11.40;1.00;;;;;;6225873;28;20057;-87
2024/02/01 10:06:38;;;;;;;12.38;2.10;;;11.90;1.00;;;;;;6224794;28;20501;-86
2024/02/01 10:09:40;;;;;;;15.68;3.08;;;12.40;1.00;;;;;;6205554;28;20042;-89
2024/02/01 10:12:42;;;;;;;20.60;2.95;;;12.80;1.00;;;;;;6222171;28;20425;-87
2024/02/01 10:15:44;;;;;;;14.70;3.00;;;12.70;1.00;;;;;;6224028;28;20425;-89
2024/02/01 10:18:53;;;;;;;9.85;2.58;;;12.90;1.00;;;;;;6229822;28;20054;-88
2024/02/01 10:21:59;;;;;;;14.90;2.75;;;13.20;1.00;;;;;;6238480;28;20420;-90
2024/02/01 10:25:03;;;;;;;16.00;3.00;;;13.30;1.00;;;;;;6225151;28;20050;-90
2024/02/01 10:28:06;;;;;;;14.45;2.70;;;13.40;1.00;;;;;;6218998;28;20057;-88
2024/02/01 10:31:08;;;;;;;14.57;2.95;;;13.30;1.00;;;;;;6231793;28;20204;-88
2024/02/01 10:34:10;;;;;;;12.85;2.55;;;13.50;1.00;;;;;;6222864;28;20501;-88
2024/02/01 10:37:13;;;;;;;13.38;2.30;;;13.60;1.00;;;;;;6223708;28;20054;-88
2024/02/01 10:40:15;;;;;;;11.93;2.10;;;13.70;1.00;;;;;;6222932;28;20069;-88
2024/02/01 10:43:17;;;;;;;9.63;2.75;;;13.70;1.00;;;;;;6234476;28;20406;-89
2024/02/01 10:46:27;;;;;;;14.30;2.80;;;13.60;1.00;;;;;;6222612;28;20061;-89
2024/02/01 10:49:29;;;;;;;16.10;2.83;;;13.70;1.00;;;;;;6208513;28;20203;-86
2024/02/01 10:52:30;;;;;;;13.40;3.08;;;14.10;1.00;;;;;;6223014;28;20501;-85
2024/02/01 10:55:33;;;;;;;13.48;3.08;;;14.30;1.00;;;;;;6220107;28;20054;-85
2024/02/01 10:58:35;;;;;;;11.45;2.50;;;14.20;1.00;;;;;;6215062;28;20076;-87
2024/02/01 11:01:37;;;;;;;18.55;2.83;;;14.20;1.00;;;;;;6219650;28;20053;-83
2024/02/01 11:04:42;;;;;;;12.52;2.45;;;14.10;1.00;;;;;;6221736;28;20057;-86
2024/02/01 11:07:44;;;;;;;15.32;2.60;;;14.50;1.00;;;;;;6221001;28;20128;-83
2024/02/01 11:10:46;;;;;;;14.25;3.10;;;14.50;1.00;;;;;;6219789;28;20351;-85
2024/02/01 11:13:48;;;;;;;13.00;2.58;;;14.60;1.00;;;;;;6214849;28;20058;-84
2024/02/01 11:16:50;;;;;;;13.45;2.10;;;14.70;1.00;;;;;;6221461;28;20057;-81
2024/02/01 11:19:52;;;;;;;16.23;2.90;;;14.80;1.00;;;;;;6243402;28;20053;-81
2024/02/01 11:22:54;;;;;;;19.80;3.20;;;14.80;1.00;;;;;;6222037;28;20456;-89
2024/02/01 11:25:56;;;;;;;12.80;2.53;;;14.80;1.00;;;;;;6222713;28;20057;-88
2024/02/01 11:28:58;;;;;;;13.95;2.70;;;14.80;1.00;;;;;;6217047;28;20084;-87
2024/02/01 11:32:03;;;;;;;12.27;2.35;;;15.00;1.00;;;;;;6224479;28;20050;-85
2024/02/01 11:35:05;;;;;;;12.13;1.98;;;15.20;1.00;;;;;;6222904;28;20050;-86
2024/02/01 11:38:07;;;;;;;11.38;2.38;;;15.30;1.00;;;;;;6230614;28;20068;-86
2024/02/01 11:41:10;;;;;;;11.82;2.53;;;15.40;1.00;;;;;;6222959;28;20050;-87
2024/02/01 11:44:11;;;;;;;13.32;2.78;;;15.30;1.00;;;;;;6220431;28;20505;-84
2024/02/01 11:47:13;;;;;;;14.43;2.58;;;15.50;1.00;;;;;;6222004;28;20049;-83
2024/02/01 11:50:14;;;;;;;13.23;2.70;;;15.30;1.00;;;;;;6222052;28;20406;-85
2024/02/01 11:53:16;;;;;;;12.20;2.30;;;15.30;1.00;;;;;;6220868;28;20050;-85
2024/02/01 11:56:18;;;;;;;9.85;2.22;;;15.20;1.00;;;;;;6218869;28;20083;-86
2024/02/01 11:59:20;;;;;;;13.95;2.33;;;15.70;1.00;;;;;;6216307;28;20059;-86
2024/02/01 12:02:22;;;;;;;12.32;2.92;;;15.80;1.00;;;;;;6220987;28;20058;-85
2024/02/01 12:05:23;;;;;;;17.58;2.60;;;15.90;1.00;;;;;;6220934;28;20056;-85
2024/02/01 12:08:25;;;;;;;15.05;2.80;;;15.80;1.00;;;;;;6220005;28;20061;-85
2024/02/01 12:11:34;;;;;;;14.35;2.55;;;16.20;1.00;;;;;;6220578;28;20057;-85
2024/02/01 12:14:38;;;;;;;11.23;2.22;;;16.30;1.00;;;;;;6190893;28;20143;-84
2024/02/01 12:17:43;;;;;;;9.55;1.90;;;16.20;1.00;;;;;;6220005;28;20085;-85
2024/02/01 12:20:45;;;;;;;11.60;2.78;;;16.00;1.00;;;;;;6219418;28;20057;-86
2024/02/01 12:23:47;;;;;;;11.55;2.55;;;15.30;1.00;;;;;;6219550;28;20058;-83
2024/02/01 12:26:49;;;;;;;16.30;3.13;;;15.10;1.00;;;;;;6221161;28;20596;-84
2024/02/01 12:29:50;;;;;;;10.93;2.80;;;15.50;1.00;;;;;;6215463;28;20050;-85
2024/02/01 12:32:52;;;;;;;15.10;2.28;;;15.60;1.00;;;;;;6219911;28;20053;-85
2024/02/01 12:35:54;;;;;;;10.75;2.28;;;15.40;1.00;;;;;;6219966;28;20049;-85
2024/02/01 12:38:56;;;;;;;13.60;2.70;;;15.50;1.00;;;;;;6219833;28;20076;-86
2024/02/01 12:41:57;;;;;;;12.82;2.40;;;15.50;1.00;;;;;;6219792;28;20054;-84
2024/02/01 12:44:59;;;;;;;16.92;2.50;;;15.50;1.00;;;;;;6214378;28;20061;-85
2024/02/01 12:48:01;;;;;;;8.07;2.50;;;15.30;1.00;;;;;;6219310;28;20489;-85
2024/02/01 12:51:03;;;;;;;11.50;2.58;;;15.60;1.00;;;;;;6219397;28;20076;-84
2024/02/01 12:54:05;;;;;;;8.30;2.25;;;15.70;1.00;;;;;;6220102;28;20057;-84
2024/02/01 12:57:08;;;;;;;10.30;1.98;;;15.50;1.00;;;;;;6222598;28;20370;-87
2024/02/01 13:00:13;;;;;;;16.48;2.55;;;15.50;1.00;;;;;;6227284;28;20049;-84
2024/02/01 13:03:15;;;;;;;9.25;2.10;;;15.40;1.00;;;;;;6235507;28;20505;-84
2024/02/01 13:06:16;;;;;;;12.20;2.45;;;15.50;1.00;;;;;;6208953;28;20055;-83
2024/02/01 13:09:33;;;;;;;9.77;2.47;;;15.70;1.00;;;;;;6218674;28;20084;-82
2024/02/01 13:12:35;;;;;;;10.00;2.13;;;15.80;1.00;;;;;;6233711;28;20046;-82
2024/02/01 13:15:37;;;;;;;8.98;1.95;;;15.70;1.00;;;;;;6232815;28;20323;-83
2024/02/01 13:18:39;;;;;;;8.35;2.05;;;15.50;1.00;;;;;;6231061;28;20064;-83
2024/02/01 13:21:41;;;;;;;10.32;2.33;;;15.70;1.00;;;;;;6219694;28;20125;-82
2024/02/01 13:24:45;;;;;;;8.23;1.88;;;15.50;1.00;;;;;;6228333;28;20054;-85
2024/02/01 13:27:48;;;;;;;8.80;1.75;;;15.50;1.00;;;;;;6203539;28;20545;-83
2024/02/01 13:30:50;;;;;;;9.45;2.00;;;15.20;1.00;;;;;;6215710;28;20062;-81
2024/02/01 13:33:51;;;;;;;11.27;2.08;;;15.20;1.00;;;;;;6205981;28;20084;-82
2024/02/01 13:36:53;;;;;;;11.18;2.58;;;15.00;1.00;;;;;;6235471;28;20060;-82
2024/02/01 13:39:55;;;;;;;12.95;2.70;;;14.80;1.00;;;;;;6234951;28;20129;-82
2024/02/01 13:42:56;;;;;;;12.63;2.67;;;14.80;1.00;;;;;;6224566;28;20057;-83
2024/02/01 13:45:58;;;;;;;9.98;2.30;;;15.00;1.00;;;;;;6227464;28;20058;-82
2024/02/01 13:49:02;;;;;;;12.95;2.50;;;15.30;1.00;;;;;;6220192;28;20193;-83
2024/02/01 13:52:06;;;;;;;9.90;2.17;;;15.20;1.00;;;;;;6228078;28;20053;-83
2024/02/01 13:55:10;;;;;;;9.25;2.22;;;15.10;1.00;;;;;;6222234;28;20188;-82
2024/02/01 13:58:12;;;;;;;8.82;2.42;;;15.30;1.00;;;;;;6204516;28;20046;-83
2024/02/01 14:01:14;;;;;;;10.75;2.50;;;15.30;1.00;;;;;;6220650;28;20137;-83
2024/02/01 14:04:16;;;;;;;11.57;2.67;;;15.20;1.00;;;;;;6222480;28;20076;-83
2024/02/01 14:07:18;;;;;;;9.80;2.28;;;14.90;1.00;;;;;;6221379;28;20065;-83
2024/02/01 14:10:20;;;;;;;10.95;2.40;;;15.00;1.00;;;;;;6229990;28;20057;-83
2024/02/01 14:13:21;;;;;;;10.20;2.28;;;14.80;1.00;;;;;;6219088;28;20054;-84
2024/02/01 14:16:23;;;;;;;11.55;2.38;;;14.60;1.00;;;;;;6220955;28;20718;-80
2024/02/01 14:19:27;;;;;;;11.90;2.20;;;14.50;1.00;;;;;;6227382;28;20505;-84
2024/02/01 14:22:28;;;;;;;14.00;2.30;;;14.50;1.00;;;;;;6233482;28;20072;-83
2024/02/01 14:25:30;;;;;;;10.07;2.15;;;14.40;1.00;;;;;;6233175;28;20060;-84
2024/02/01 14:28:32;;;;;;;10.07;2.40;;;14.50;1.00;;;;;;6216987;28;20070;-83
2024/02/01 14:31:33;;;;;;;9.38;2.50;;;14.50;1.00;;;;;;6232948;28;20452;-83
2024/02/01 14:34:35;;;;;;;13.50;2.70;;;14.40;1.00;;;;;;6223116;28;20060;-84
2024/02/01 14:37:37;;;;;;;12.25;2.47;;;14.30;1.00;;;;;;6242559;28;20049;-82
2024/02/01 14:40:38;;;;;;;13.80;2.58;;;14.00;1.00;;;;;;6222802;28;20065;-82
2024/02/01 14:43:40;;;;;;;10.02;2.45;;;13.70;1.00;;;;;;6210769;28;20065;-83
2024/02/01 14:46:42;;;;;;;12.68;2.85;;;13.40;1.00;;;;;;6220602;28;20192;-83
2024/02/01 14:49:44;;;;;;;9.77;2.20;;;13.20;1.00;;;;;;6216826;28;20109;-83
2024/02/01 14:52:45;;;;;;;10.10;2.05;;;13.10;1.00;;;;;;6238566;28;20056;-82
2024/02/01 14:55:47;;;;;;;10.93;2.30;;;12.80;1.00;;;;;;6233042;28;20057;-85
2024/02/01 14:58:49;;;;;;;9.10;2.20;;;12.40;1.00;;;;;;6220336;28;20074;-83
2024/02/01 15:01:50;;;;;;;9.82;2.08;;;12.00;1.00;;;;;;6238164;28;20493;-84
2024/02/01 15:04:56;;;;;;;9.38;2.40;;;11.60;1.00;;;;;;6223473;28;20501;-84
2024/02/01 15:07:58;;;;;;;13.15;2.90;;;11.20;1.00;;;;;;6214269;28;20053;-84
2024/02/01 15:11:01;;;;;;;12.18;2.55;;;10.90;1.00;;;;;;6228145;28;20115;-85
2024/02/01 15:14:02;;;;;;;12.18;2.70;;;10.80;1.00;;;;;;6226129;28;20054;-83
2024/02/01 15:17:04;;;;;;;13.80;3.03;;;10.70;1.00;;;;;;6230074;28;20060;-83
2024/02/01 15:20:06;;;;;;;21.92;3.25;;;10.50;1.00;;;;;;6229829;28;20054;-80
2024/02/01 15:23:09;;;;;;;12.90;2.25;;;10.40;1.00;;;;;;6230214;28;20490;-83
2024/02/01 15:26:10;;;;;;;11.85;2.10;;;10.30;1.00;;;;;;6244817;28;20049;-84
2024/02/01 15:29:13;;;;;;;9.43;1.88;;;10.20;1.00;;;;;;6226049;28;20054;-84
2024/02/01 15:32:18;;;;;;;11.27;2.67;;;10.10;1.00;;;;;;6233178;28;20057;-81
2024/02/01 15:35:20;;;;;;;11.50;2.08;;;9.90;1.00;;;;;;6238154;28;20485;-82
2024/02/01 15:38:21;;;;;;;12.82;2.22;;;9.90;1.00;;;;;;6230241;28;20224;-85
2024/02/01 15:41:23;;;;;;;9.43;1.90;;;9.80;1.00;;;;;;6240567;28;20045;-84
2024/02/01 15:44:25;;;;;;;17.17;2.50;;;9.70;1.00;;;;;;6223637;28;20061;-85
2024/02/01 15:47:33;;;;;;;17.23;2.97;;;9.70;1.00;;;;;;6232215;28;20439;-85
2024/02/01 15:50:47;;;;;;;16.67;2.60;;;9.60;1.00;;;;;;6237324;28;20057;-87
2024/02/01 15:53:49;;;;;;;9.10;1.85;;;9.60;1.00;;;;;;6215682;28;20072;-85
2024/02/01 15:56:51;;;;;;;13.13;2.72;;;9.50;1.00;;;;;;6219835;28;20049;-86
2024/02/01 15:59:53;;;;;;;15.02;2.40;;;9.50;1.00;;;;;;6217363;28;20061;-86
2024/02/01 16:02:56;;;;;;;11.38;2.38;;;9.50;1.00;;;;;;6231235;28;20422;-85
2024/02/01 16:05:58;;;;;;;13.30;2.45;;;9.50;1.00;;;;;;6230843;28;20057;-86
2024/02/01 16:09:00;;;;;;;14.38;2.58;;;9.40;1.00;;;;;;6231314;28;20520;-87
2024/02/01 16:12:02;;;;;;;10.98;2.42;;;9.30;1.00;;;;;;6219742;28;20124;-86
2024/02/01 16:15:09;;;;;;;14.70;2.65;;;9.20;1.00;;;;;;6219220;28;20132;-85
2024/02/01 16:18:11;;;;;;;8.38;2.13;;;9.10;1.00;;;;;;6224740;28;20061;-87
2024/02/01 16:21:12;;;;;;;12.85;2.58;;;9.00;1.00;;;;;;6221802;28;20441;-86
2024/02/01 16:24:14;;;;;;;15.15;2.90;;;9.00;1.00;;;;;;6222201;28;20081;-86
2024/02/01 16:27:17;;;;;;;14.73;3.00;;;8.90;1.00;;;;;;6222155;28;20099;-86
2024/02/01 16:30:20;;;;;;;20.08;2.38;;;8.80;1.00;;;;;;6216949;28;20053;-86
2024/02/01 16:33:22;;;;;;;12.13;2.40;;;8.70;1.00;;;;;;6222311;28;20058;-86